Terminal Aerodrome Forecast
Issued by NWS

Current Version | Previous Version | Graphics & Text | Print | Product List | Glossary On
Versions: 1 2 3 4 5 6 7 8 9 10 11 12 13 14 15 16 17 18 19
000
FTUS41 KPBZ 200500 CCA
TAFMGW
TAF COR
KMGW 200524Z 2006/2106 15005KT P6SM VCSH OVC040
      TEMPO 2008/2012 5SM BR
     FM201200 16005KT P6SM BKN040=

USA.gov is the U.S. government's official web portal to all federal, state and local government web resources and services.